createdAt,value
2018-06-30T00:02:11.420Z,15.89
2018-06-30T00:04:45.477Z,15.82
2018-06-30T00:07:14.163Z,15.85
2018-06-30T00:09:42.819Z,15.75
2018-06-30T00:12:11.484Z,15.83
2018-06-30T00:14:40.155Z,15.96
2018-06-30T00:17:08.848Z,16.14
2018-06-30T00:19:37.531Z,16.16
2018-06-30T00:22:06.250Z,16.36
2018-06-30T00:24:34.932Z,16.62
2018-06-30T00:27:09.064Z,16.70
2018-06-30T00:29:37.766Z,16.80
2018-06-30T00:32:06.646Z,16.75
2018-06-30T00:34:35.303Z,16.76
2018-06-30T00:37:03.976Z,16.78
2018-06-30T00:39:32.669Z,16.87
2018-06-30T00:42:01.316Z,16.87
2018-06-30T00:44:30.008Z,16.71
2018-06-30T00:46:58.775Z,16.74
2018-06-30T00:49:27.401Z,16.72
2018-06-30T00:51:56.041Z,16.79
2018-06-30T00:54:25.850Z,16.82
2018-06-30T00:56:54.543Z,16.92
2018-06-30T00:59:23.280Z,17.02
2018-06-30T01:01:51.918Z,17.02
2018-06-30T01:04:20.603Z,17.09
2018-06-30T01:06:49.287Z,16.99
2018-06-30T01:09:17.938Z,17.11
2018-06-30T01:11:46.636Z,17.01
2018-06-30T01:14:15.307Z,16.75
2018-06-30T01:16:43.959Z,16.86
2018-06-30T01:19:12.768Z,17.05
2018-06-30T01:21:41.509Z,17.21
2018-06-30T01:24:10.311Z,16.96
2018-06-30T01:26:38.964Z,17.10
2018-06-30T01:29:07.648Z,17.18
2018-06-30T01:31:36.318Z,16.87
2018-06-30T01:34:05.165Z,16.71
2018-06-30T01:36:33.813Z,16.79
2018-06-30T01:39:02.470Z,16.71
2018-06-30T01:41:31.189Z,16.96
2018-06-30T01:43:59.885Z,17.11
2018-06-30T01:46:28.587Z,17.11
2018-06-30T01:48:57.256Z,17.23
2018-06-30T01:51:25.907Z,17.36
2018-06-30T01:53:54.607Z,17.22
2018-06-30T01:56:23.259Z,16.93
2018-06-30T01:58:52.096Z,16.66
2018-06-30T02:01:20.801Z,16.65
2018-06-30T02:03:49.459Z,16.89
2018-06-30T02:06:18.133Z,16.79
2018-06-30T02:08:46.809Z,16.90
2018-06-30T02:11:15.442Z,16.80
2018-06-30T02:13:44.084Z,16.87
2018-06-30T02:16:12.789Z,17.06
2018-06-30T02:18:41.459Z,17.04
2018-06-30T02:21:10.098Z,17.13
2018-06-30T02:23:38.786Z,17.23
2018-06-30T02:26:07.436Z,17.30
2018-06-30T02:28:36.761Z,17.08
2018-06-30T02:31:05.448Z,17.08
2018-06-30T02:33:34.079Z,17.13
2018-06-30T02:36:02.740Z,17.15
2018-06-30T02:38:31.389Z,17.16
2018-06-30T02:41:00.088Z,17.23
2018-06-30T02:43:28.829Z,17.30
2018-06-30T02:45:57.484Z,17.08
2018-06-30T02:48:26.168Z,17.07
2018-06-30T02:50:54.873Z,16.86
2018-06-30T02:53:23.566Z,16.91
2018-06-30T02:55:52.243Z,16.82
2018-06-30T02:58:20.925Z,17.05
2018-06-30T03:00:49.612Z,17.09
2018-06-30T03:03:18.367Z,17.00
2018-06-30T03:05:47.023Z,16.94
2018-06-30T03:08:15.737Z,16.86
2018-06-30T03:10:44.396Z,16.89
2018-06-30T03:13:13.231Z,16.65
2018-06-30T03:15:41.899Z,16.75
2018-06-30T03:18:10.603Z,16.78
2018-06-30T03:20:39.273Z,16.92
2018-06-30T03:23:08.116Z,17.02
2018-06-30T03:25:36.794Z,17.07
2018-06-30T03:28:05.483Z,16.91
2018-06-30T03:30:34.166Z,16.73
2018-06-30T03:33:02.921Z,16.85
2018-06-30T03:35:31.643Z,16.77
2018-06-30T03:38:00.329Z,16.60
2018-06-30T03:40:29.031Z,16.48
2018-06-30T03:42:57.703Z,16.27
2018-06-30T03:45:26.405Z,16.26
2018-06-30T03:47:55.092Z,16.35
2018-06-30T03:50:23.875Z,16.29
2018-06-30T03:52:52.527Z,16.39
2018-06-30T03:55:21.174Z,16.41
2018-06-30T03:57:49.915Z,16.41
2018-06-30T04:00:18.700Z,16.45
2018-06-30T04:02:47.416Z,16.46
2018-06-30T04:05:16.104Z,16.40
2018-06-30T04:07:45.252Z,16.44
2018-06-30T04:10:13.902Z,16.47
2018-06-30T04:12:42.612Z,16.60
2018-06-30T04:15:11.249Z,16.49
2018-06-30T04:17:39.933Z,16.47
2018-06-30T04:20:08.616Z,16.52
2018-06-30T04:22:37.310Z,16.58
2018-06-30T04:25:06.023Z,16.61
2018-06-30T04:27:34.689Z,16.55
2018-06-30T04:30:03.391Z,16.58
2018-06-30T04:32:32.064Z,16.52
2018-06-30T04:35:00.896Z,16.65
2018-06-30T04:37:29.664Z,16.61
2018-06-30T04:39:58.937Z,16.71
2018-06-30T04:42:27.726Z,16.73
2018-06-30T04:44:56.592Z,16.85
2018-06-30T04:47:25.247Z,16.75
2018-06-30T04:49:53.914Z,16.59
2018-06-30T04:52:22.598Z,16.63
2018-06-30T04:54:51.303Z,16.69
2018-06-30T04:57:19.951Z,16.82
2018-06-30T04:59:48.632Z,16.80
2018-06-30T05:02:17.319Z,16.82
2018-06-30T05:04:46.010Z,16.60
2018-06-30T05:07:14.679Z,16.64
2018-06-30T05:09:43.403Z,16.84
2018-06-30T05:12:12.059Z,16.90
2018-06-30T05:14:40.740Z,17.07
2018-06-30T05:17:09.470Z,17.22
2018-06-30T05:19:38.186Z,17.26
2018-06-30T05:22:06.896Z,17.39
2018-06-30T05:24:35.620Z,17.64
2018-06-30T05:27:04.562Z,17.73
2018-06-30T05:29:33.322Z,17.48
2018-06-30T05:32:02.052Z,17.32
2018-06-30T05:34:30.846Z,17.32
2018-06-30T05:36:59.531Z,17.45
2018-06-30T05:39:28.195Z,17.56
2018-06-30T05:41:56.911Z,17.68
2018-06-30T05:44:25.523Z,17.68
2018-06-30T05:46:54.310Z,17.87
2018-06-30T05:49:22.995Z,17.88
2018-06-30T05:51:51.643Z,17.96
2018-06-30T05:54:20.672Z,17.94
2018-06-30T05:56:49.559Z,18.07
2018-06-30T05:59:18.344Z,18.10
2018-06-30T06:01:47.199Z,17.99
2018-06-30T06:04:16.254Z,18.09
2018-06-30T06:06:44.956Z,18.11
2018-06-30T06:09:13.707Z,18.30
2018-06-30T06:11:42.787Z,18.34
2018-06-30T06:14:11.858Z,18.51
2018-06-30T06:16:42.126Z,18.77
2018-06-30T06:19:10.812Z,18.63
2018-06-30T06:21:39.532Z,18.71
2018-06-30T06:24:08.229Z,18.69
2018-06-30T06:26:36.888Z,18.55
2018-06-30T06:29:06.042Z,18.62
2018-06-30T06:31:34.727Z,18.68
2018-06-30T06:34:03.520Z,18.63
2018-06-30T06:36:32.172Z,18.67
2018-06-30T06:39:00.832Z,18.81
2018-06-30T06:41:29.575Z,18.74
2018-06-30T06:43:58.232Z,18.93
2018-06-30T06:46:26.943Z,18.94
2018-06-30T06:48:55.658Z,19.09
2018-06-30T06:51:24.369Z,19.35
2018-06-30T06:53:53.071Z,19.37
2018-06-30T06:56:21.789Z,19.41
2018-06-30T06:58:50.470Z,19.61
2018-06-30T07:01:19.246Z,19.79
2018-06-30T07:03:47.949Z,19.90
2018-06-30T07:06:16.624Z,19.81
2018-06-30T07:08:45.330Z,19.92
2018-06-30T07:11:14.022Z,20.13
2018-06-30T07:13:42.847Z,20.01
2018-06-30T07:16:11.616Z,19.89
2018-06-30T07:18:40.681Z,20.16
2018-06-30T07:21:09.439Z,20.17
2018-06-30T07:23:38.210Z,20.32
2018-06-30T07:26:07.045Z,20.63
2018-06-30T07:28:35.758Z,20.61
2018-06-30T07:31:04.428Z,20.54
2018-06-30T07:33:33.125Z,20.59
2018-06-30T07:36:01.771Z,20.43
2018-06-30T07:38:30.648Z,20.87
2018-06-30T07:40:59.344Z,21.02
2018-06-30T07:43:28.052Z,21.27
2018-06-30T07:45:56.780Z,21.38
2018-06-30T07:48:25.435Z,21.48
2018-06-30T07:50:54.128Z,21.58
2018-06-30T07:53:22.812Z,21.61
2018-06-30T07:55:51.537Z,21.46
2018-06-30T07:58:20.540Z,21.46
2018-06-30T08:00:49.324Z,21.53
2018-06-30T08:03:18.012Z,22.04
2018-06-30T08:05:46.976Z,22.79
2018-06-30T08:08:15.702Z,23.22
2018-06-30T08:10:44.804Z,23.41
2018-06-30T08:13:13.762Z,23.58
2018-06-30T08:15:42.421Z,23.68
2018-06-30T08:18:11.192Z,23.64
2018-06-30T08:20:39.912Z,23.32
2018-06-30T08:23:08.616Z,24.06
2018-06-30T08:25:37.951Z,24.32
2018-06-30T08:28:07.084Z,24.35
2018-06-30T08:30:35.757Z,24.18
2018-06-30T08:33:04.483Z,24.14
2018-06-30T08:35:33.176Z,24.60
2018-06-30T08:38:01.919Z,24.89
2018-06-30T08:40:30.636Z,25.01
2018-06-30T08:42:59.885Z,25.22
2018-06-30T08:45:28.544Z,25.13
2018-06-30T08:47:57.916Z,25.04
2018-06-30T08:50:26.677Z,24.68
2018-06-30T08:52:55.360Z,25.27
2018-06-30T08:55:24.106Z,25.45
2018-06-30T08:57:52.812Z,24.93
2018-06-30T09:00:21.552Z,25.27
2018-06-30T09:02:50.701Z,25.29
2018-06-30T09:05:19.359Z,25.05
2018-06-30T09:07:48.126Z,25.27
2018-06-30T09:10:16.883Z,25.25
2018-06-30T09:12:45.554Z,25.94
2018-06-30T09:15:14.259Z,25.65
2018-06-30T09:17:43.224Z,26.07
2018-06-30T09:20:11.992Z,25.64
2018-06-30T09:22:40.716Z,25.98
2018-06-30T09:25:09.408Z,26.54
2018-06-30T09:27:38.105Z,26.12
2018-06-30T09:30:07.934Z,25.50
2018-06-30T09:32:36.677Z,24.74
2018-06-30T09:35:05.408Z,23.88
2018-06-30T09:37:34.149Z,23.86
2018-06-30T09:40:02.884Z,23.54
2018-06-30T09:42:31.791Z,23.65
2018-06-30T09:45:00.628Z,24.38
2018-06-30T09:47:29.328Z,23.38
2018-06-30T09:49:58.246Z,23.06
2018-06-30T09:52:26.916Z,22.67
2018-06-30T09:54:55.579Z,22.42
2018-06-30T09:57:24.275Z,23.59
2018-06-30T09:59:52.968Z,24.40
2018-06-30T10:02:21.640Z,24.83
2018-06-30T10:04:50.333Z,25.43
2018-06-30T10:07:19.021Z,25.79
2018-06-30T10:09:47.699Z,25.86
2018-06-30T10:12:16.393Z,25.96
2018-06-30T10:14:45.261Z,26.26
2018-06-30T10:17:13.963Z,26.93
2018-06-30T10:19:42.665Z,27.14
2018-06-30T10:22:11.335Z,26.53
2018-06-30T10:24:41.428Z,26.56
2018-06-30T10:27:10.135Z,25.89
2018-06-30T10:29:38.959Z,25.72
2018-06-30T10:32:08.326Z,25.51
2018-06-30T10:34:36.988Z,24.99
2018-06-30T10:37:05.705Z,24.87
2018-06-30T10:39:34.374Z,24.80
2018-06-30T10:42:03.085Z,24.97
2018-06-30T10:44:31.837Z,24.76
2018-06-30T10:47:00.440Z,25.35
2018-06-30T10:49:29.283Z,26.25
2018-06-30T10:51:57.951Z,26.24
2018-06-30T10:54:26.726Z,26.12
2018-06-30T10:56:55.361Z,25.67
2018-06-30T10:59:24.301Z,24.93
2018-06-30T11:01:53.020Z,24.39
2018-06-30T11:04:21.766Z,24.91
2018-06-30T11:06:50.456Z,24.74
2018-06-30T11:09:19.107Z,25.00
2018-06-30T11:11:47.838Z,25.21
2018-06-30T11:14:16.564Z,25.74
2018-06-30T11:16:45.309Z,25.99
2018-06-30T11:19:13.982Z,26.19
2018-06-30T11:21:42.621Z,25.15
2018-06-30T11:24:11.420Z,24.34
2018-06-30T11:26:40.144Z,23.89
2018-06-30T11:29:08.860Z,23.90
2018-06-30T11:31:38.844Z,24.30
2018-06-30T11:34:07.565Z,24.88
2018-06-30T11:36:36.368Z,25.00
2018-06-30T11:39:08.427Z,25.01
2018-06-30T11:41:37.273Z,25.14
2018-06-30T11:44:05.927Z,24.98
2018-06-30T11:46:34.734Z,25.16
2018-06-30T11:49:03.440Z,25.22
2018-06-30T11:51:32.172Z,25.18
2018-06-30T11:54:00.844Z,25.18
2018-06-30T11:56:29.512Z,25.00
2018-06-30T11:58:58.998Z,25.43
2018-06-30T12:01:27.731Z,25.19
2018-06-30T12:03:56.389Z,25.58
2018-06-30T12:06:25.107Z,25.76
2018-06-30T12:08:53.803Z,25.81
2018-06-30T12:11:22.522Z,26.04
2018-06-30T12:13:51.318Z,26.46
2018-06-30T12:16:20.044Z,26.27
2018-06-30T12:18:49.043Z,26.37
2018-06-30T12:21:17.669Z,26.80
2018-06-30T12:23:46.336Z,27.07
2018-06-30T12:26:15.012Z,26.84
2018-06-30T12:28:43.644Z,26.30
2018-06-30T12:31:12.318Z,26.26
2018-06-30T12:33:41.746Z,26.60
2018-06-30T12:36:10.421Z,26.53
2018-06-30T12:38:39.067Z,26.69
2018-06-30T12:41:07.926Z,26.46
2018-06-30T12:43:37.072Z,26.09
2018-06-30T12:46:05.728Z,25.92
2018-06-30T12:48:34.432Z,26.10
2018-06-30T12:51:03.110Z,26.03
2018-06-30T12:53:31.978Z,25.97
2018-06-30T12:56:00.635Z,26.11
2018-06-30T12:58:29.291Z,26.16
2018-06-30T13:00:57.996Z,25.81
2018-06-30T13:03:26.875Z,25.81
2018-06-30T13:05:55.515Z,26.19
2018-06-30T13:08:24.234Z,26.30
2018-06-30T13:10:53.091Z,26.39
2018-06-30T13:13:21.956Z,26.09
2018-06-30T13:15:50.996Z,25.61
2018-06-30T13:18:19.774Z,25.67
2018-06-30T13:20:48.495Z,25.43
2018-06-30T13:23:17.138Z,25.62
2018-06-30T13:25:46.062Z,25.54
2018-06-30T13:28:15.410Z,25.25
2018-06-30T13:30:44.116Z,25.46
2018-06-30T13:33:12.814Z,25.72
2018-06-30T13:35:41.785Z,25.72
2018-06-30T13:38:10.513Z,25.73
2018-06-30T13:40:40.204Z,25.47
2018-06-30T13:43:08.839Z,25.23
2018-06-30T13:45:37.516Z,25.08
2018-06-30T13:48:06.251Z,25.54
2018-06-30T13:50:35.232Z,25.65
2018-06-30T13:53:03.889Z,25.81
2018-06-30T13:55:32.654Z,25.80
2018-06-30T13:58:01.298Z,25.58
2018-06-30T14:00:30.038Z,25.58
2018-06-30T14:02:58.674Z,25.22
2018-06-30T14:05:27.368Z,25.24
2018-06-30T14:07:56.169Z,25.42
2018-06-30T14:10:24.927Z,25.64
2018-06-30T14:12:53.631Z,25.52
2018-06-30T14:15:22.646Z,25.24
2018-06-30T14:17:51.318Z,25.34
2018-06-30T14:20:20.019Z,25.10
2018-06-30T14:22:48.761Z,25.22
2018-06-30T14:25:17.408Z,25.21
2018-06-30T14:27:46.074Z,25.50
2018-06-30T14:30:14.707Z,25.12
2018-06-30T14:32:43.354Z,25.13
2018-06-30T14:35:12.795Z,24.77
2018-06-30T14:37:41.496Z,25.16
2018-06-30T14:40:10.372Z,25.02
2018-06-30T14:42:39.108Z,24.84
2018-06-30T14:45:07.881Z,24.36
2018-06-30T14:47:36.856Z,24.33
2018-06-30T14:50:05.528Z,24.59
2018-06-30T14:52:34.232Z,24.78
2018-06-30T14:55:03.312Z,24.86
2018-06-30T14:57:32.022Z,24.44
2018-06-30T15:00:01.314Z,24.51
2018-06-30T15:02:30.178Z,24.64
2018-06-30T15:04:58.811Z,24.64
2018-06-30T15:07:27.563Z,24.68
2018-06-30T15:09:56.231Z,24.31
2018-06-30T15:12:24.912Z,24.44
2018-06-30T15:14:53.693Z,24.35
2018-06-30T15:17:25.092Z,24.36
2018-06-30T15:19:53.788Z,24.41
2018-06-30T15:22:22.670Z,24.46
2018-06-30T15:24:51.821Z,24.69
2018-06-30T15:27:20.531Z,24.50
2018-06-30T15:29:49.218Z,24.32
2018-06-30T15:32:18.243Z,24.34
2018-06-30T15:34:46.995Z,24.15
2018-06-30T15:37:16.017Z,23.55
2018-06-30T15:39:44.633Z,23.40
2018-06-30T15:42:13.296Z,23.52
2018-06-30T15:44:41.983Z,23.46
2018-06-30T15:47:10.803Z,23.38
2018-06-30T15:49:39.524Z,23.06
2018-06-30T15:52:08.182Z,22.92
2018-06-30T15:54:37.037Z,22.43
2018-06-30T15:57:05.735Z,22.53
2018-06-30T15:59:34.493Z,22.72
2018-06-30T16:02:03.140Z,22.66
2018-06-30T16:04:31.808Z,22.24
2018-06-30T16:07:00.495Z,22.62
2018-06-30T16:09:29.172Z,22.28
2018-06-30T16:11:57.886Z,22.41
2018-06-30T16:14:26.606Z,22.35
2018-06-30T16:16:55.322Z,22.38
2018-06-30T16:19:23.979Z,22.41
2018-06-30T16:21:52.770Z,22.23
2018-06-30T16:24:21.472Z,22.11
2018-06-30T16:26:50.102Z,21.98
2018-06-30T16:29:18.766Z,22.20
2018-06-30T16:31:47.447Z,22.11
2018-06-30T16:34:16.111Z,21.96
2018-06-30T16:36:44.800Z,22.10
2018-06-30T16:39:13.619Z,22.02
2018-06-30T16:41:42.515Z,21.79
2018-06-30T16:44:11.161Z,21.75
2018-06-30T16:46:40.040Z,21.84
2018-06-30T16:49:09.042Z,21.66
2018-06-30T16:51:38.214Z,21.89
2018-06-30T16:54:06.866Z,21.99
2018-06-30T16:56:35.589Z,21.88
2018-06-30T16:59:04.285Z,21.78
2018-06-30T17:01:32.974Z,21.87
2018-06-30T17:04:01.612Z,21.92
2018-06-30T17:06:30.323Z,22.01
2018-06-30T17:08:58.975Z,21.81
2018-06-30T17:11:28.263Z,21.87
2018-06-30T17:13:56.944Z,21.81
2018-06-30T17:16:25.710Z,21.84
2018-06-30T17:18:54.857Z,21.83
2018-06-30T17:21:23.644Z,21.87
2018-06-30T17:23:52.406Z,21.82
2018-06-30T17:26:21.653Z,21.82
2018-06-30T17:28:50.311Z,21.65
2018-06-30T17:31:19.157Z,21.61
2018-06-30T17:33:47.918Z,21.65
2018-06-30T17:36:17.456Z,21.61
2018-06-30T17:38:46.219Z,21.62
2018-06-30T17:41:14.948Z,21.63
2018-06-30T17:43:43.771Z,21.66
2018-06-30T17:46:12.473Z,21.67
2018-06-30T17:48:41.184Z,21.69
2018-06-30T17:51:09.858Z,21.66
2018-06-30T17:53:38.524Z,21.67
2018-06-30T17:56:07.421Z,21.65
2018-06-30T17:58:36.077Z,21.48
2018-06-30T18:01:04.771Z,21.30
2018-06-30T18:03:33.527Z,21.20
2018-06-30T18:06:03.111Z,21.30
2018-06-30T18:08:31.904Z,21.25
2018-06-30T18:11:07.276Z,21.28
2018-06-30T18:13:35.977Z,21.24
2018-06-30T18:16:04.991Z,21.27
2018-06-30T18:18:33.729Z,21.21
2018-06-30T18:21:02.648Z,21.15
2018-06-30T18:23:31.364Z,21.13
2018-06-30T18:26:00.021Z,21.15
2018-06-30T18:28:28.678Z,21.25
2018-06-30T18:30:57.393Z,21.20
2018-06-30T18:33:26.053Z,20.95
2018-06-30T18:35:54.702Z,20.91
2018-06-30T18:38:23.693Z,21.04
2018-06-30T18:40:52.502Z,20.98
2018-06-30T18:43:21.217Z,20.77
2018-06-30T18:45:50.715Z,20.69
2018-06-30T18:48:19.436Z,20.71
2018-06-30T18:50:48.165Z,20.81
2018-06-30T18:53:17.112Z,20.80
2018-06-30T18:55:46.083Z,20.62
2018-06-30T18:58:16.162Z,20.69
2018-06-30T19:00:45.492Z,20.74
2018-06-30T19:03:14.543Z,20.68
2018-06-30T19:05:43.662Z,20.55
2018-06-30T19:08:12.611Z,20.57
2018-06-30T19:10:41.767Z,20.48
2018-06-30T19:13:10.508Z,20.40
2018-06-30T19:15:39.943Z,20.36
2018-06-30T19:18:09.563Z,20.40
2018-06-30T19:20:38.255Z,20.24
2018-06-30T19:23:06.923Z,20.12
2018-06-30T19:25:35.664Z,19.92
2018-06-30T19:28:04.330Z,19.83
2018-06-30T19:30:33.035Z,19.75
2018-06-30T19:33:01.737Z,19.66
2018-06-30T19:35:30.538Z,19.55
2018-06-30T19:37:59.554Z,19.56
2018-06-30T19:40:28.711Z,19.50
2018-06-30T19:42:57.379Z,19.51
2018-06-30T19:45:26.112Z,19.40
2018-06-30T19:47:54.785Z,19.27
2018-06-30T19:50:23.439Z,19.10
2018-06-30T19:52:52.127Z,19.08
2018-06-30T19:55:20.780Z,18.96
2018-06-30T19:57:49.464Z,19.14
2018-06-30T20:00:18.501Z,18.81
2018-06-30T20:02:47.853Z,18.77
2018-06-30T20:05:16.460Z,18.66
2018-06-30T20:07:50.608Z,18.69
2018-06-30T20:10:20.650Z,18.57
2018-06-30T20:12:49.334Z,18.52
2018-06-30T20:15:18.057Z,18.46
2018-06-30T20:17:48.433Z,18.46
2018-06-30T20:20:17.999Z,18.43
2018-06-30T20:22:46.758Z,18.22
2018-06-30T20:25:15.411Z,18.20
2018-06-30T20:27:44.115Z,18.25
2018-06-30T20:30:12.805Z,18.24
2018-06-30T20:32:41.516Z,18.24
2018-06-30T20:35:10.218Z,18.13
2018-06-30T20:37:38.873Z,18.12
2018-06-30T20:40:07.519Z,18.04
2018-06-30T20:42:36.909Z,17.98
2018-06-30T20:45:05.924Z,17.98
2018-06-30T20:47:35.324Z,17.99
2018-06-30T20:50:04.039Z,18.00
2018-06-30T20:52:32.757Z,17.88
2018-06-30T20:55:03.220Z,17.78
2018-06-30T20:57:31.875Z,17.69
2018-06-30T21:00:00.637Z,17.58
2018-06-30T21:02:30.066Z,17.77
2018-06-30T21:04:58.750Z,17.65
2018-06-30T21:07:27.410Z,17.58
2018-06-30T21:09:56.109Z,17.43
2018-06-30T21:12:24.870Z,17.37
2018-06-30T21:14:53.551Z,17.31
2018-06-30T21:17:22.649Z,17.21
2018-06-30T21:19:51.352Z,17.02
2018-06-30T21:22:20.091Z,16.89
2018-06-30T21:24:49.104Z,16.89
2018-06-30T21:27:17.810Z,16.75
2018-06-30T21:29:46.505Z,16.75
2018-06-30T21:32:15.971Z,16.54
2018-06-30T21:34:44.686Z,16.45
2018-06-30T21:37:14.050Z,16.48
2018-06-30T21:39:42.778Z,16.57
2018-06-30T21:42:11.528Z,16.45
2018-06-30T21:44:40.215Z,16.35
2018-06-30T21:47:08.943Z,16.37
2018-06-30T21:49:37.698Z,16.40
2018-06-30T21:52:06.394Z,16.37
2018-06-30T21:54:35.129Z,16.18
2018-06-30T21:57:03.772Z,16.14
2018-06-30T21:59:32.496Z,16.16
2018-06-30T22:02:01.188Z,16.17
2018-06-30T22:04:29.844Z,16.14
2018-06-30T22:06:58.514Z,16.06
2018-06-30T22:09:27.179Z,16.08
2018-06-30T22:11:56.245Z,16.01
2018-06-30T22:14:24.929Z,15.93
2018-06-30T22:16:53.679Z,15.93
2018-06-30T22:19:22.358Z,15.90
2018-06-30T22:21:51.101Z,16.02
2018-06-30T22:24:19.739Z,16.13
2018-06-30T22:26:49.040Z,16.00
2018-06-30T22:29:17.720Z,15.99
2018-06-30T22:31:46.933Z,15.86
2018-06-30T22:34:15.620Z,15.81
2018-06-30T22:36:44.613Z,15.67
2018-06-30T22:39:13.434Z,15.62
2018-06-30T22:41:42.317Z,15.68
2018-06-30T22:44:10.987Z,15.77
2018-06-30T22:46:40.946Z,15.85
2018-06-30T22:49:10.077Z,15.90
2018-06-30T22:51:39.543Z,15.98
2018-06-30T22:54:08.258Z,15.85
2018-06-30T22:56:37.359Z,15.81
2018-06-30T22:59:06.043Z,15.90
2018-06-30T23:01:34.691Z,15.85
2018-06-30T23:04:03.408Z,16.01
2018-06-30T23:06:32.652Z,16.04
2018-06-30T23:09:01.332Z,15.89
2018-06-30T23:11:29.975Z,15.84
2018-06-30T23:13:58.652Z,15.89
2018-06-30T23:16:28.693Z,15.88
2018-06-30T23:18:57.388Z,15.91
2018-06-30T23:21:26.671Z,16.08
2018-06-30T23:23:55.683Z,16.04
2018-06-30T23:26:24.604Z,16.01
2018-06-30T23:28:53.576Z,15.96
2018-06-30T23:31:22.191Z,15.82
2018-06-30T23:33:50.895Z,15.75
2018-06-30T23:36:19.619Z,15.84
2018-06-30T23:38:48.276Z,15.76
2018-06-30T23:41:17.592Z,15.73
2018-06-30T23:43:46.290Z,15.78
2018-06-30T23:46:14.911Z,15.91
2018-06-30T23:48:43.602Z,15.92
2018-06-30T23:51:12.322Z,15.91
2018-06-30T23:53:40.939Z,15.93
2018-06-30T23:56:09.641Z,16.01
2018-06-30T23:58:38.922Z,16.10
